Terminal Aerodrome Forecast
Issued by NWS

Current Version | Previous Version | Graphics & Text | Print | Product List | Glossary On
Versions: 1 2 3 4 5 6 7 8 9 10 11 12 13 14 15 16 17 18 19 20 21 22 23 24 25
000
FTUS41 KPBZ 261300 AAA
TAFHLG
TAF AMD
KHLG 261308Z 2613/2712 35008KT 4SM -SN BR OVC006
     FM261500 35010KT 1 1/2SM -SN OVC015
     FM270000 32008KT 5SM -SHSN BKN025
     FM270300 32006KT P6SM BKN020=

USA.gov is the U.S. government's official web portal to all federal, state and local government web resources and services.